Glendive, MT

12:30 AM MDT on September 27, 2016 (GMT -0600)
Dawson Community

Weather History for KGDV - September, 2011

Change the Weather History Date:

Saturday, September 10, 2011

  Actual Average Record
Temperature  
Mean Temperature 68 °F -  
Max Temperature 86 °F 73 °F 91 °F (2012)
Min Temperature 51 °F 47 °F 37 °F (2014)
Cooling Degree Days 4    
Growing Degree Days 18 (Base 50)    
Moisture  
Dew Point 42 °F    
Average Humidity 40    
Maximum Humidity 67    
Minimum Humidity 19    
Precipitation  
Precipitation 0.00 in - - ()
Sea Level Pressure  
Sea Level Pressure 30.13 in    
Wind  
Wind Speed 5 mph (South)    
Max Wind Speed 12 mph    
Max Gust Speed -    
Visibility 10 miles    
Events      
Averages and records for this station are not official NWS values.
T = Trace of Precipitation, MM = Missing Value Source: NWS Daily Summary

Daily Weather History Graph

Daily Weather History Graph

Search for Another Location

Airport or City:

Trip Planner

Search our weather history database for the weather conditions in past years. The results will help you decide how hot, cold, wet, or windy it might be!

Date:

Astronomy

Sep. 10, 2011 Rise Set
Actual Time 6:29 AM MDT 7:21 PM MDT
Civil Twilight 5:58 AM MDT 7:52 PM MDT
Nautical Twilight 5:21 AM MDT 8:29 PM MDT
Astronomical Twilight 4:42 AM MDT 9:08 PM MDT
Moon 6:18 PM MDT (9/10) 4:49 AM MDT (9/10)
Length of Visible Light 13h 53m
Length of Day
12h 51m
Waxing Gibbous, 97% of the Moon is Illuminated
Sep 10
Waxing Gibbous
Sep 12
Full
Sep 20
Last Quarter
Sep 27
New
Oct 3
First Quarter

Hourly Weather History & Observations

Time (MDT) Temp. Dew Point Humidity Pressure Visibility Wind Dir Wind Speed Gust Speed Precip Events Conditions
12:15 AM 62.6 °F 41.0 °F 45% 30.15 in 10.0 mi SSW 4.6 mph - N/A   Clear
12:35 AM 59.0 °F 39.2 °F 48% 30.15 in 10.0 mi SSW 4.6 mph - N/A   Clear
12:55 AM 59.0 °F 39.2 °F 48% 30.15 in 10.0 mi South 5.8 mph - N/A   Clear
1:15 AM 60.8 °F 41.0 °F 48% 30.15 in 10.0 mi South 6.9 mph - N/A   Clear
1:35 AM 60.8 °F 41.0 °F 48% 30.15 in 10.0 mi South 4.6 mph - N/A   Clear
1:55 AM 62.6 °F 41.0 °F 45% 30.15 in 10.0 mi South 4.6 mph - N/A   Clear
2:15 AM 60.8 °F 41.0 °F 48% 30.15 in 10.0 mi South 4.6 mph - N/A   Clear
2:35 AM 59.0 °F 41.0 °F 51% 30.15 in 10.0 mi South 6.9 mph - N/A   Clear
2:55 AM 57.2 °F 41.0 °F 55% 30.15 in 10.0 mi South 5.8 mph - N/A   Clear
3:15 AM 57.2 °F 41.0 °F 55% 30.15 in 10.0 mi SSW 4.6 mph - N/A   Clear
3:35 AM 55.4 °F 39.2 °F 54% 30.15 in 10.0 mi SSW 4.6 mph - N/A   Clear
3:55 AM 53.6 °F 41.0 °F 62% 30.15 in 10.0 mi SSW 5.8 mph - N/A   Clear
4:15 AM 55.4 °F 41.0 °F 58% 30.15 in 10.0 mi South 4.6 mph - N/A   Clear
4:35 AM 53.6 °F 39.2 °F 58% 30.15 in 10.0 mi SSW 4.6 mph - N/A   Clear
4:55 AM 55.4 °F 41.0 °F 58% 30.15 in 10.0 mi South 6.9 mph - N/A   Clear
5:15 AM 53.6 °F 41.0 °F 62% 30.15 in 10.0 mi South 6.9 mph - N/A   Clear
5:35 AM 53.6 °F 41.0 °F 62% 30.15 in 10.0 mi SSW 8.1 mph - N/A   Clear
5:55 AM 53.6 °F 41.0 °F 62% 30.15 in 10.0 mi SSW 6.9 mph - N/A   Clear
6:15 AM 53.6 °F 42.8 °F 67% 30.15 in 10.0 mi SSW 3.5 mph - N/A   Clear
6:35 AM 51.8 °F 41.0 °F 67% 30.15 in 10.0 mi Calm Calm - N/A   Clear
6:55 AM 53.6 °F 41.0 °F 62% 30.15 in 10.0 mi SSW 5.8 mph - N/A   Clear
7:15 AM 51.8 °F 41.0 °F 67% 30.15 in 10.0 mi Calm Calm - N/A   Clear
7:35 AM 55.4 °F 42.8 °F 63% 30.16 in 10.0 mi SW 4.6 mph - N/A   Clear
7:55 AM 60.8 °F 44.6 °F 55% 30.16 in 10.0 mi SSW 4.6 mph - N/A   Clear
8:15 AM 62.6 °F 44.6 °F 52% 30.16 in 10.0 mi SSW 5.8 mph - N/A   Clear
8:35 AM 64.4 °F 42.8 °F 45% 30.16 in 10.0 mi South 5.8 mph - N/A   Clear
8:55 AM 66.2 °F 44.6 °F 46% 30.16 in 10.0 mi South 8.1 mph - N/A   Clear
9:15 AM 66.2 °F 44.6 °F 46% 30.16 in 10.0 mi SSE 8.1 mph - N/A   Clear
9:35 AM 69.8 °F 44.6 °F 40% 30.16 in 10.0 mi South 8.1 mph - N/A   Clear
9:55 AM 71.6 °F 44.6 °F 38% 30.16 in 10.0 mi South 8.1 mph - N/A   Clear
10:15 AM 73.4 °F 44.6 °F 36% 30.15 in 10.0 mi South 6.9 mph - N/A   Clear
10:35 AM 75.2 °F 44.6 °F 34% 30.15 in 10.0 mi SSE 6.9 mph - N/A   Clear
10:55 AM 78.8 °F 44.6 °F 30% 30.15 in 10.0 mi South 8.1 mph - N/A   Clear
11:15 AM 78.8 °F 44.6 °F 30% 30.15 in 10.0 mi South 8.1 mph - N/A   Clear
11:35 AM 80.6 °F 46.4 °F 30% 30.14 in 10.0 mi SE 5.8 mph - N/A   Clear
11:55 AM 82.4 °F 44.6 °F 26% 30.13 in 10.0 mi SSE 6.9 mph - N/A   Clear
12:15 PM 82.4 °F 44.6 °F 26% 30.12 in 10.0 mi South 9.2 mph - N/A   Clear
12:35 PM 84.2 °F 42.8 °F 23% 30.12 in 10.0 mi South 6.9 mph - N/A   Clear
12:55 PM 82.4 °F 42.8 °F 25% 30.12 in 10.0 mi SSE 8.1 mph - N/A   Clear
1:15 PM 84.2 °F 42.8 °F 23% 30.12 in 10.0 mi SSE 9.2 mph - N/A   Clear
1:35 PM 84.2 °F 42.8 °F 23% 30.11 in 10.0 mi SE 11.5 mph - N/A   Clear
1:55 PM 86.0 °F 42.8 °F 22% 30.11 in 10.0 mi ESE 6.9 mph - N/A   Clear
2:15 PM 84.2 °F 41.0 °F 22% 30.10 in 10.0 mi SSE 6.9 mph - N/A   Clear
2:35 PM 84.2 °F 41.0 °F 22% 30.10 in 10.0 mi ENE 3.5 mph - N/A   Clear
2:55 PM 84.2 °F 41.0 °F 22% 30.09 in 10.0 mi Calm Calm - N/A   Clear
3:15 PM 84.2 °F 39.2 °F 20% 30.08 in 10.0 mi SE 6.9 mph - N/A   Clear
3:35 PM 84.2 °F 39.2 °F 20% 30.08 in 10.0 mi North 6.9 mph - N/A   Clear
3:55 PM 84.2 °F 39.2 °F 20% 30.07 in 10.0 mi ENE 4.6 mph - N/A   Clear
4:15 PM 84.2 °F 39.2 °F 20% 30.07 in 10.0 mi Calm Calm - N/A   Clear
4:35 PM 84.2 °F 39.2 °F 20% 30.06 in 10.0 mi Calm Calm - N/A   Clear
4:55 PM 84.2 °F 39.2 °F 20% 30.06 in 10.0 mi North 5.8 mph - N/A   Clear
5:15 PM 86.0 °F 39.2 °F 19% 30.05 in 10.0 mi South 3.5 mph - N/A   Clear
5:35 PM 86.0 °F 39.2 °F 19% 30.05 in 10.0 mi SSE 4.6 mph - N/A   Clear
5:55 PM 84.2 °F 39.2 °F 20% 30.05 in 10.0 mi SE 4.6 mph - N/A   Clear
6:15 PM 84.2 °F 39.2 °F 20% 30.05 in 10.0 mi South 3.5 mph - N/A   Clear
6:35 PM 82.4 °F 39.2 °F 21% 30.05 in 10.0 mi Calm Calm - N/A   Clear
6:55 PM 82.4 °F 41.0 °F 23% 30.05 in 10.0 mi Calm Calm - N/A   Clear
7:15 PM 80.6 °F 39.2 °F 23% 30.05 in 10.0 mi ENE 3.5 mph - N/A   Clear
7:35 PM 78.8 °F 39.2 °F 24% 30.05 in 10.0 mi Calm Calm - N/A   Clear
7:55 PM 77.0 °F 39.2 °F 26% 30.05 in 10.0 mi ENE 4.6 mph - N/A   Clear
8:15 PM 73.4 °F 41.0 °F 31% 30.05 in 10.0 mi East 6.9 mph - N/A   Clear
8:35 PM 73.4 °F 41.0 °F 31% 30.05 in 10.0 mi ESE 6.9 mph - N/A   Clear
8:55 PM 75.2 °F 41.0 °F 29% 30.05 in 10.0 mi SE 5.8 mph - N/A   Clear
9:15 PM 71.6 °F 41.0 °F 33% 30.06 in 10.0 mi SSE 8.1 mph - N/A   Clear
9:35 PM 73.4 °F 42.8 °F 33% 30.05 in 10.0 mi SSE 8.1 mph - N/A   Clear
9:55 PM 71.6 °F 41.0 °F 33% 30.05 in 10.0 mi SSE 5.8 mph - N/A   Clear
10:15 PM 73.4 °F 41.0 °F 31% 30.05 in 10.0 mi South 5.8 mph - N/A   Clear
10:35 PM 73.4 °F 41.0 °F 31% 30.05 in 10.0 mi SSE 4.6 mph - N/A   Clear
10:55 PM 71.6 °F 41.0 °F 33% 30.05 in 10.0 mi South 3.5 mph - N/A   Clear
11:15 PM 71.6 °F 41.0 °F 33% 30.05 in 10.0 mi SSE 5.8 mph - N/A   Clear
11:35 PM 69.8 °F 41.0 °F 35% 30.05 in 10.0 mi SSE 8.1 mph - N/A   Clear
11:55 PM 66.2 °F 41.0 °F 40% 30.05 in 10.0 mi South 5.8 mph - N/A   Clear